Portada
METAR-TAF:

METAR-TAF

Aeroports :

Ghat, Líbia

latitud: 25-08N, longitud: 010-09E, altitud: 699 m

METAR: manca

Hora: 05:39 (03:39 UTC)

Pronòstic

L'informe es va fer fa 4 hores i 39 minuts, a les 23:00 UTC
Pronòstic vàlid del 07 a les 00 UTC al 07 a les 24 UTC
Vent 2 kt amb direcció variable
Visibilitat 10 km o més
sense núvols per sota de 1500 mi sense presència de cumulonimbus.
Evolucionant progressivament
l' 07 a les 06 UTC al 07 a les 08 UTC
Vent 10 kt del Nord/Nord-Oest
Evolucionant progressivament
l' 07 a les 21 UTC al 07 a les 23 UTC
Vent 2 kt amb direcció variable

TAF: HLGT 062300Z 0700/0724 VRB02KT CAVOK BECMG 0706/0708 34010KT BECMG 0721/0723 VRB02KT

Observacions i pronòstics meteorològics de més de 4000 aeroports (METAR i TAF).

Les estacions disponibles són els punts grocs i vermells al mapa.

Posi el ratolí al punt desitjat per veure el nom de l'estació.

Feu clic per veure les observacions i els pronòstics meteorològics.

Per canviar el mapa: feu clic els botons verds amb una creu de color negre per apropar; al botó verd amb un guió per allunyar la imatge; o en les fletxes verdes per a mapes adjacents.


METAR-TAF: